Time;durP1;ratioP1;P1;durP2;ratioP2;P2;SDS_P1;SDS_P2;PMS_P1;PMS_P2;Temp;Humidity;BMP_temperature;BMP_pressure;BME280_temperature;BME280_humidity;BME280_pressure;Samples;Min_cycle;Max_cycle;Signal;HPM_P1;HPM_P2
2022/04/24 00:01:53;;;;;;;16.45;10.75;;;11.20;99.90;;;;;;5013234;28;20058;-80
2022/04/24 00:04:20;;;;;;;16.25;10.75;;;11.30;99.90;;;;;;5014863;28;20044;-79
2022/04/24 00:06:48;;;;;;;14.48;10.35;;;11.30;99.90;;;;;;5003943;28;20050;-79
2022/04/24 00:09:16;;;;;;;14.80;10.15;;;11.30;99.90;;;;;;5009535;28;20052;-79
2022/04/24 00:11:45;;;;;;;16.02;10.50;;;11.40;99.90;;;;;;5013176;28;20053;-80
2022/04/24 00:14:12;;;;;;;16.20;11.70;;;11.30;99.90;;;;;;5004015;28;20043;-80
2022/04/24 00:16:40;;;;;;;17.05;11.77;;;11.30;99.90;;;;;;5011520;28;20046;-79
2022/04/24 00:19:07;;;;;;;16.42;11.70;;;11.20;99.90;;;;;;5014407;28;20049;-80
2022/04/24 00:21:34;;;;;;;15.18;10.82;;;11.20;99.90;;;;;;5013633;28;20075;-79
2022/04/24 00:24:02;;;;;;;15.32;10.95;;;11.30;99.90;;;;;;5013949;28;20052;-79
2022/04/24 00:26:30;;;;;;;16.35;11.13;;;11.00;99.90;;;;;;5002259;28;20049;-79
2022/04/24 00:28:58;;;;;;;15.48;11.15;;;10.90;99.90;;;;;;5013978;28;20558;-80
2022/04/24 00:31:25;;;;;;;17.08;11.75;;;10.80;99.90;;;;;;5014270;28;20058;-79
2022/04/24 00:33:52;;;;;;;20.15;12.60;;;10.80;99.90;;;;;;5004187;28;20497;-79
2022/04/24 00:36:19;;;;;;;17.23;11.60;;;10.60;99.90;;;;;;4994777;28;20050;-79
2022/04/24 00:38:46;;;;;;;17.38;11.05;;;10.60;99.90;;;;;;5012105;28;20042;-79
2022/04/24 00:41:13;;;;;;;15.50;11.05;;;10.70;99.90;;;;;;5010242;28;20052;-79
2022/04/24 00:43:41;;;;;;;16.27;11.02;;;10.80;99.90;;;;;;5014055;28;20046;-79
2022/04/24 00:46:15;;;;;;;19.58;13.60;;;10.90;99.90;;;;;;5013804;28;20414;-80
2022/04/24 00:48:43;;;;;;;17.65;12.40;;;10.80;99.90;;;;;;5011109;28;20042;-79
2022/04/24 00:51:10;;;;;;;17.95;12.80;;;10.80;99.90;;;;;;4986626;28;20403;-79
2022/04/24 00:53:38;;;;;;;16.05;11.45;;;10.80;99.90;;;;;;5012617;28;20064;-79
2022/04/24 00:56:06;;;;;;;16.67;11.30;;;10.50;99.90;;;;;;5001300;28;20052;-79
2022/04/24 00:58:34;;;;;;;17.60;12.23;;;10.50;99.90;;;;;;5013862;28;20053;-79
2022/04/24 01:01:02;;;;;;;16.35;11.45;;;10.70;99.90;;;;;;5013227;28;20054;-79
2022/04/24 01:03:31;;;;;;;17.05;11.70;;;10.90;99.90;;;;;;5012929;28;20053;-79
2022/04/24 01:05:58;;;;;;;17.95;12.65;;;10.70;99.90;;;;;;4982829;28;20052;-79
2022/04/24 01:08:25;;;;;;;19.05;13.10;;;10.60;99.90;;;;;;5000918;28;20488;-79
2022/04/24 01:10:52;;;;;;;19.30;13.48;;;10.60;99.90;;;;;;5012526;28;20313;-79
2022/04/24 01:13:19;;;;;;;17.90;12.63;;;10.60;99.90;;;;;;5013138;28;20042;-79
2022/04/24 01:15:46;;;;;;;19.40;13.23;;;10.80;99.90;;;;;;5013205;28;20042;-79
2022/04/24 01:18:14;;;;;;;18.50;12.80;;;10.80;99.90;;;;;;5012745;28;20048;-79
2022/04/24 01:20:42;;;;;;;20.23;13.55;;;10.60;99.90;;;;;;5012308;28;20060;-79
2022/04/24 01:23:09;;;;;;;18.05;13.00;;;10.20;99.90;;;;;;5012778;28;20048;-79
2022/04/24 01:25:37;;;;;;;19.23;12.77;;;10.50;99.90;;;;;;4999998;28;20046;-78
2022/04/24 01:28:09;;;;;;;19.10;12.75;;;10.30;99.90;;;;;;5012974;28;20081;-78
2022/04/24 01:30:36;;;;;;;17.85;12.77;;;10.40;99.90;;;;;;5013090;28;20130;-79
2022/04/24 01:33:04;;;;;;;17.85;12.50;;;10.40;99.90;;;;;;5012944;28;20050;-79
2022/04/24 01:35:31;;;;;;;18.98;12.95;;;10.50;99.90;;;;;;5007858;28;20050;-79
2022/04/24 01:37:59;;;;;;;17.38;12.35;;;10.60;99.90;;;;;;4981540;28;20041;-79
2022/04/24 01:40:27;;;;;;;16.13;11.00;;;10.70;99.90;;;;;;5012025;28;20046;-79
2022/04/24 01:42:54;;;;;;;19.60;13.27;;;10.80;99.90;;;;;;5011737;28;20554;-79
2022/04/24 01:45:21;;;;;;;20.08;13.65;;;10.80;99.90;;;;;;5008356;28;20052;-79
2022/04/24 01:47:48;;;;;;;19.27;13.68;;;10.80;99.90;;;;;;5012580;28;20497;-79
2022/04/24 01:50:15;;;;;;;20.50;13.88;;;10.80;99.90;;;;;;4998401;28;20069;-79
2022/04/24 01:52:42;;;;;;;22.10;13.48;;;10.70;99.90;;;;;;5010320;28;20431;-79
2022/04/24 01:55:10;;;;;;;18.65;13.23;;;10.80;99.90;;;;;;4998088;28;20046;-79
2022/04/24 01:57:37;;;;;;;17.65;12.30;;;10.80;99.90;;;;;;5009346;28;20518;-79
2022/04/24 02:00:06;;;;;;;17.73;12.60;;;11.00;99.90;;;;;;5012473;28;20060;-79
2022/04/24 02:02:33;;;;;;;18.95;13.27;;;11.00;99.90;;;;;;5009894;28;20046;-79
2022/04/24 02:05:00;;;;;;;21.00;13.55;;;10.90;99.90;;;;;;5005138;28;20138;-79
2022/04/24 02:07:28;;;;;;;18.92;13.32;;;10.90;99.90;;;;;;5006242;28;20046;-79
2022/04/24 02:09:55;;;;;;;19.58;13.10;;;10.60;99.90;;;;;;5010514;28;20048;-79
2022/04/24 02:12:23;;;;;;;18.55;13.25;;;10.40;99.90;;;;;;5011962;28;20542;-79
2022/04/24 02:14:50;;;;;;;21.90;14.15;;;10.40;99.90;;;;;;5011145;28;21695;-80
2022/04/24 02:17:17;;;;;;;19.77;13.40;;;10.50;99.90;;;;;;5011882;28;20042;-80
2022/04/24 02:19:44;;;;;;;20.55;13.90;;;10.60;99.90;;;;;;5010941;28;20050;-78
2022/04/24 02:22:11;;;;;;;18.63;12.70;;;10.60;99.90;;;;;;5012241;28;20056;-78
2022/04/24 02:24:39;;;;;;;22.52;15.15;;;10.80;99.90;;;;;;4993994;28;20496;-79
2022/04/24 02:27:06;;;;;;;21.60;14.80;;;10.60;99.90;;;;;;5004525;28;20128;-79
2022/04/24 02:29:34;;;;;;;21.20;14.30;;;10.40;99.90;;;;;;5010153;28;20133;-79
2022/04/24 02:32:01;;;;;;;21.13;13.88;;;10.50;99.90;;;;;;4997363;28;20049;-79
2022/04/24 02:34:28;;;;;;;21.50;14.93;;;10.50;99.90;;;;;;5011724;28;20483;-79
2022/04/24 02:36:55;;;;;;;23.17;15.25;;;10.40;99.90;;;;;;4991696;28;20057;-79
2022/04/24 02:39:22;;;;;;;20.50;14.20;;;10.40;99.90;;;;;;4999779;28;20046;-79
2022/04/24 02:41:49;;;;;;;19.60;13.98;;;10.40;99.90;;;;;;5010680;28;20513;-78
2022/04/24 02:44:16;;;;;;;20.20;13.30;;;10.40;99.90;;;;;;5008800;28;20064;-79
2022/04/24 02:46:45;;;;;;;19.25;13.23;;;10.40;99.90;;;;;;5012180;28;20042;-79
2022/04/24 02:49:12;;;;;;;18.85;13.20;;;10.50;99.90;;;;;;5011994;28;20046;-79
2022/04/24 02:51:39;;;;;;;17.00;12.13;;;10.60;99.90;;;;;;5003597;28;20085;-78
2022/04/24 02:54:06;;;;;;;20.58;12.68;;;10.70;99.90;;;;;;5008126;28;20045;-79
2022/04/24 02:56:33;;;;;;;18.85;13.00;;;10.70;99.90;;;;;;5002946;28;20073;-79
2022/04/24 02:59:00;;;;;;;19.33;12.85;;;10.70;99.90;;;;;;5003847;28;20073;-78
2022/04/24 03:01:28;;;;;;;18.40;12.80;;;10.70;99.90;;;;;;5014719;28;20132;-79
2022/04/24 03:03:56;;;;;;;18.08;13.02;;;10.70;99.90;;;;;;5013298;28;20064;-79
2022/04/24 03:06:23;;;;;;;19.77;13.38;;;10.70;99.90;;;;;;5008332;28;20089;-79
2022/04/24 03:08:50;;;;;;;19.20;13.73;;;10.70;99.90;;;;;;5013096;28;20050;-79
2022/04/24 03:11:17;;;;;;;18.98;13.50;;;10.60;99.90;;;;;;5015678;28;20057;-79
2022/04/24 03:13:44;;;;;;;18.63;12.90;;;10.60;99.90;;;;;;5015917;28;20049;-79
2022/04/24 03:16:11;;;;;;;18.92;13.18;;;10.70;99.90;;;;;;5014439;28;20048;-79
2022/04/24 03:18:38;;;;;;;20.27;13.88;;;10.80;99.90;;;;;;5015459;28;20050;-79
2022/04/24 03:21:07;;;;;;;18.83;13.95;;;10.80;99.90;;;;;;5013636;28;20042;-79
2022/04/24 03:23:34;;;;;;;19.95;13.73;;;10.80;99.90;;;;;;5014177;28;20050;-78
2022/04/24 03:26:01;;;;;;;20.55;14.02;;;10.80;99.90;;;;;;4998796;28;20129;-78
2022/04/24 03:28:28;;;;;;;21.38;15.18;;;10.80;99.90;;;;;;5003406;28;20056;-78
2022/04/24 03:30:55;;;;;;;21.55;14.65;;;10.70;99.90;;;;;;5014280;28;20385;-79
2022/04/24 03:33:22;;;;;;;22.17;15.45;;;10.60;99.90;;;;;;5015328;28;20046;-79
2022/04/24 03:35:49;;;;;;;22.38;15.10;;;10.60;99.90;;;;;;5014338;28;20042;-79
2022/04/24 03:38:17;;;;;;;20.65;14.48;;;10.40;99.90;;;;;;5015287;28;20048;-79
2022/04/24 03:40:44;;;;;;;21.15;15.27;;;10.10;99.90;;;;;;5013023;28;20049;-79
2022/04/24 03:43:11;;;;;;;21.00;14.60;;;9.90;99.90;;;;;;5015076;28;20057;-79
2022/04/24 03:45:38;;;;;;;23.15;15.85;;;9.90;99.90;;;;;;5012355;28;20061;-79
2022/04/24 03:48:06;;;;;;;22.88;15.98;;;9.90;99.90;;;;;;5014965;28;20046;-78
2022/04/24 03:50:33;;;;;;;21.73;15.23;;;10.10;99.90;;;;;;5014087;28;20038;-78
2022/04/24 03:53:00;;;;;;;23.80;15.85;;;10.20;99.90;;;;;;5007268;28;20070;-79
2022/04/24 03:55:29;;;;;;;22.80;15.57;;;10.10;99.90;;;;;;5003618;28;20510;-79
2022/04/24 03:57:56;;;;;;;21.52;14.27;;;9.90;99.90;;;;;;5014796;28;20077;-79
2022/04/24 04:00:23;;;;;;;21.75;14.70;;;10.10;99.90;;;;;;5014403;28;20050;-79
2022/04/24 04:02:50;;;;;;;20.58;14.43;;;10.10;99.90;;;;;;5013057;28;20051;-79
2022/04/24 04:05:17;;;;;;;21.10;13.88;;;10.20;99.90;;;;;;5014302;28;20045;-79
2022/04/24 04:07:44;;;;;;;21.88;15.18;;;10.20;99.90;;;;;;5014651;28;20041;-79
2022/04/24 04:10:11;;;;;;;23.48;15.85;;;10.10;99.90;;;;;;5013403;28;20048;-79
2022/04/24 04:12:40;;;;;;;21.88;15.10;;;10.20;99.90;;;;;;5014390;28;20419;-78
2022/04/24 04:15:08;;;;;;;22.23;15.02;;;10.20;99.90;;;;;;5014512;28;20522;-79
2022/04/24 04:17:35;;;;;;;26.50;17.88;;;10.40;99.90;;;;;;5013054;28;20052;-79
2022/04/24 04:20:03;;;;;;;28.55;18.40;;;10.40;99.90;;;;;;5006183;28;20057;-80
2022/04/24 04:22:30;;;;;;;32.03;20.98;;;10.20;99.90;;;;;;5004644;28;20050;-79
2022/04/24 04:24:57;;;;;;;30.70;19.65;;;9.90;99.90;;;;;;5010250;28;20484;-79
2022/04/24 04:27:26;;;;;;;32.28;20.55;;;9.70;99.90;;;;;;5014414;28;20046;-79
2022/04/24 04:29:55;;;;;;;23.83;15.88;;;9.80;99.90;;;;;;5012840;28;20482;-80
2022/04/24 04:32:22;;;;;;;18.40;11.00;;;9.60;99.90;;;;;;5014079;28;20123;-80
2022/04/24 04:34:49;;;;;;;12.20;7.07;;;9.40;99.90;;;;;;5014247;28;20050;-80
2022/04/24 04:37:16;;;;;;;8.65;5.30;;;9.20;99.90;;;;;;4999816;28;20047;-80
2022/04/24 04:39:43;;;;;;;8.70;4.50;;;9.00;99.90;;;;;;5011690;28;20046;-79
2022/04/24 04:42:10;;;;;;;7.57;4.57;;;8.90;99.90;;;;;;5012975;28;20046;-80
2022/04/24 04:44:37;;;;;;;7.40;4.00;;;8.90;99.90;;;;;;5012108;28;20052;-80
2022/04/24 04:47:08;;;;;;;8.77;3.83;;;8.90;99.90;;;;;;5008429;28;20404;-80
2022/04/24 04:49:34;;;;;;;9.50;4.13;;;8.90;99.90;;;;;;5014352;28;20400;-80
2022/04/24 04:52:02;;;;;;;7.30;3.72;;;9.00;99.90;;;;;;5013056;28;20156;-79
2022/04/24 04:54:29;;;;;;;6.97;3.72;;;8.90;99.90;;;;;;5007050;28;20074;-82
2022/04/24 04:56:56;;;;;;;5.78;2.67;;;9.00;99.90;;;;;;5013118;28;20046;-82
2022/04/24 04:59:23;;;;;;;5.28;2.53;;;9.00;99.90;;;;;;4999349;28;20056;-80
2022/04/24 05:01:50;;;;;;;4.60;1.98;;;9.10;99.90;;;;;;5014739;23;20522;-82
2022/04/24 05:04:18;;;;;;;3.20;1.50;;;9.10;99.90;;;;;;5015567;28;20533;-82
2022/04/24 05:06:45;;;;;;;2.88;1.33;;;9.00;99.90;;;;;;5015235;28;20137;-82
2022/04/24 05:09:12;;;;;;;3.67;1.40;;;8.90;99.90;;;;;;5029879;28;20076;-82
2022/04/24 05:11:39;;;;;;;4.25;1.30;;;8.90;99.90;;;;;;5018883;28;20056;-83
2022/04/24 05:14:06;;;;;;;3.47;1.08;;;8.70;99.90;;;;;;5026686;28;20062;-85
2022/04/24 05:16:34;;;;;;;3.10;1.00;;;8.80;99.90;;;;;;5029926;28;20061;-83
2022/04/24 05:19:02;;;;;;;2.35;0.80;;;8.80;99.90;;;;;;5014178;28;20046;-81
2022/04/24 05:21:31;;;;;;;3.10;0.90;;;8.60;99.90;;;;;;4996172;28;20046;-82
2022/04/24 05:24:00;;;;;;;2.63;0.93;;;8.50;99.90;;;;;;4995892;28;20050;-81
2022/04/24 05:26:27;;;;;;;2.60;0.85;;;8.40;99.90;;;;;;5031893;28;20052;-81
2022/04/24 05:28:54;;;;;;;3.00;0.90;;;8.50;99.90;;;;;;5017023;28;20050;-82
2022/04/24 05:31:22;;;;;;;2.35;0.80;;;8.40;99.90;;;;;;5025158;28;20045;-83
2022/04/24 05:33:49;;;;;;;2.55;0.90;;;8.30;99.90;;;;;;5030497;28;20364;-81
2022/04/24 05:36:16;;;;;;;2.80;0.63;;;8.30;99.90;;;;;;5014179;28;20126;-80
2022/04/24 05:38:44;;;;;;;2.03;0.70;;;8.20;99.90;;;;;;5014334;28;20058;-79
2022/04/24 05:41:11;;;;;;;1.65;0.60;;;8.20;99.90;;;;;;5013043;28;20046;-82
2022/04/24 05:43:38;;;;;;;1.65;0.52;;;8.20;99.90;;;;;;5011687;28;20479;-79
2022/04/24 05:46:06;;;;;;;1.38;0.50;;;8.20;99.90;;;;;;5013231;28;20133;-81
2022/04/24 05:48:33;;;;;;;1.80;0.60;;;8.10;99.90;;;;;;5013064;28;20152;-81
2022/04/24 05:51:00;;;;;;;1.88;0.63;;;8.20;99.90;;;;;;5012989;28;20053;-80
2022/04/24 05:53:27;;;;;;;1.00;0.40;;;8.20;99.90;;;;;;5013760;28;20077;-81
2022/04/24 05:55:56;;;;;;;2.10;0.60;;;8.30;99.90;;;;;;5022157;28;20137;-81
2022/04/24 05:58:24;;;;;;;1.20;0.50;;;8.30;99.90;;;;;;5014663;28;20521;-81
2022/04/24 06:00:51;;;;;;;2.72;0.50;;;8.20;99.90;;;;;;5009577;28;20132;-78
2022/04/24 06:03:18;;;;;;;2.28;0.40;;;8.20;99.90;;;;;;5013685;28;20041;-81
2022/04/24 06:05:47;;;;;;;2.22;0.40;;;8.30;99.90;;;;;;5013851;28;20049;-79
2022/04/24 06:08:14;;;;;;;0.40;0.20;;;8.30;99.90;;;;;;5012363;28;20105;-79
2022/04/24 06:10:41;;;;;;;1.23;0.40;;;8.30;99.90;;;;;;5013134;28;20406;-80
2022/04/24 06:13:10;;;;;;;1.42;0.50;;;8.30;99.90;;;;;;5012919;28;20050;-79
2022/04/24 06:15:40;;;;;;;1.75;0.50;;;8.20;99.90;;;;;;5006718;28;20077;-81
2022/04/24 06:18:07;;;;;;;1.15;0.40;;;8.10;99.90;;;;;;4999536;28;20050;-83
2022/04/24 06:20:34;;;;;;;2.15;0.40;;;8.20;99.90;;;;;;4989828;28;20081;-83
2022/04/24 06:23:02;;;;;;;1.70;0.45;;;8.30;99.90;;;;;;5004240;28;20085;-83
2022/04/24 06:25:31;;;;;;;1.80;0.50;;;8.30;99.90;;;;;;5013644;28;20081;-83
2022/04/24 06:27:59;;;;;;;1.38;0.40;;;8.20;99.90;;;;;;5014108;28;20088;-83
2022/04/24 06:30:30;;;;;;;0.93;0.40;;;8.20;99.90;;;;;;5013653;28;20081;-84
2022/04/24 06:32:57;;;;;;;1.65;0.32;;;8.10;99.90;;;;;;5007106;28;20050;-83
2022/04/24 06:35:25;;;;;;;1.52;0.55;;;8.10;99.90;;;;;;5007428;28;20045;-83
2022/04/24 06:37:55;;;;;;;1.98;0.30;;;8.10;99.90;;;;;;5013448;28;20122;-82
2022/04/24 06:40:24;;;;;;;2.65;0.50;;;8.00;99.90;;;;;;5012374;28;20053;-83
2022/04/24 06:42:53;;;;;;;1.30;0.30;;;8.00;99.90;;;;;;5013331;28;20053;-83
2022/04/24 06:45:25;;;;;;;1.00;0.30;;;8.00;99.90;;;;;;5014571;28;20088;-82
2022/04/24 06:47:54;;;;;;;1.42;0.30;;;7.90;99.90;;;;;;5013963;28;20407;-83
2022/04/24 06:50:23;;;;;;;0.88;0.30;;;7.90;99.90;;;;;;5011516;28;20062;-84
2022/04/24 06:52:58;;;;;;;0.98;0.30;;;8.00;99.90;;;;;;5011809;28;20490;-87
2022/04/24 06:55:25;;;;;;;2.20;0.50;;;7.90;99.90;;;;;;5004692;28;20137;-86
2022/04/24 06:57:53;;;;;;;1.05;0.30;;;8.00;99.90;;;;;;5012985;28;20050;-85
2022/04/24 07:00:21;;;;;;;1.60;0.40;;;8.00;99.90;;;;;;5023556;28;20052;-83
2022/04/24 07:02:48;;;;;;;1.55;0.45;;;7.90;99.90;;;;;;4984542;28;20484;-85
2022/04/24 07:05:20;;;;;;;1.17;0.35;;;8.00;99.90;;;;;;4980425;28;20440;-82
2022/04/24 07:07:47;;;;;;;2.15;0.60;;;7.90;99.90;;;;;;4974906;28;20043;-84
2022/04/24 07:10:14;;;;;;;1.15;0.50;;;7.90;99.90;;;;;;4991408;28;20151;-83
2022/04/24 07:12:50;;;;;;;1.50;0.50;;;8.00;99.90;;;;;;4992172;28;20510;-84
2022/04/24 07:15:19;;;;;;;0.95;0.30;;;8.00;99.90;;;;;;4993326;28;20050;-82
2022/04/24 07:17:47;;;;;;;1.63;0.30;;;8.10;99.90;;;;;;5004231;28;20046;-85
2022/04/24 07:20:18;;;;;;;1.27;0.30;;;8.00;99.90;;;;;;4993872;28;20114;-82
2022/04/24 07:22:48;;;;;;;1.77;0.38;;;8.00;99.90;;;;;;4992505;28;20483;-82
2022/04/24 07:25:16;;;;;;;1.50;0.40;;;8.10;99.90;;;;;;4988771;28;20054;-83
2022/04/24 07:27:44;;;;;;;1.30;0.40;;;8.00;99.90;;;;;;4988624;28;20054;-82
2022/04/24 07:30:14;;;;;;;1.17;0.35;;;8.00;99.90;;;;;;4985745;28;20125;-82
2022/04/24 07:32:46;;;;;;;1.65;0.45;;;8.00;99.90;;;;;;4975511;28;20055;-82
2022/04/24 07:35:17;;;;;;;1.73;0.50;;;8.00;99.90;;;;;;4993381;28;20142;-82
2022/04/24 07:37:45;;;;;;;1.50;0.50;;;8.00;99.90;;;;;;4995625;28;20398;-83
2022/04/24 07:40:15;;;;;;;0.68;0.25;;;8.00;99.90;;;;;;4994793;28;20129;-82
2022/04/24 07:42:48;;;;;;;2.17;0.60;;;8.10;99.90;;;;;;4994758;28;20053;-82
2022/04/24 07:45:20;;;;;;;1.50;0.55;;;8.10;99.90;;;;;;4994081;28;20054;-82
2022/04/24 07:47:47;;;;;;;2.35;0.60;;;8.10;99.90;;;;;;4992696;28;20089;-85
2022/04/24 07:50:17;;;;;;;1.33;0.50;;;8.30;99.90;;;;;;4997398;28;20050;-86
2022/04/24 07:52:46;;;;;;;1.45;0.55;;;8.30;99.90;;;;;;4980162;28;20050;-85
2022/04/24 07:55:17;;;;;;;1.65;0.57;;;8.20;99.90;;;;;;4996581;28;20042;-84
2022/04/24 07:57:44;;;;;;;1.33;0.40;;;8.30;99.90;;;;;;4997151;28;20054;-88
2022/04/24 08:00:13;;;;;;;2.72;0.40;;;8.30;99.90;;;;;;4996878;28;20479;-83
2022/04/24 08:02:49;;;;;;;1.38;0.50;;;8.30;99.90;;;;;;4979761;28;20078;-81
2022/04/24 08:05:25;;;;;;;1.38;0.50;;;8.40;99.90;;;;;;4996307;28;20130;-78
2022/04/24 08:07:53;;;;;;;1.65;0.52;;;8.50;99.90;;;;;;4968133;28;20047;-81
2022/04/24 08:10:23;;;;;;;1.73;0.57;;;8.50;99.90;;;;;;4996515;28;20409;-83
2022/04/24 08:12:51;;;;;;;1.75;0.60;;;8.50;99.90;;;;;;4996518;28;20056;-80
2022/04/24 08:15:18;;;;;;;1.40;0.45;;;8.60;99.90;;;;;;4992977;28;20046;-81
2022/04/24 08:17:46;;;;;;;1.20;0.40;;;8.60;99.90;;;;;;4990748;28;20110;-81
2022/04/24 08:20:15;;;;;;;2.13;0.47;;;8.60;99.90;;;;;;4967018;28;20091;-82
2022/04/24 08:22:45;;;;;;;3.70;1.40;;;8.50;99.90;;;;;;4982673;28;20055;-82
2022/04/24 08:25:15;;;;;;;17.30;7.75;;;8.60;99.90;;;;;;4989303;28;20038;-79
2022/04/24 08:27:43;;;;;;;11.07;5.30;;;8.40;99.90;;;;;;4995382;28;20056;-82
2022/04/24 08:30:12;;;;;;;2.95;0.98;;;8.50;99.90;;;;;;4995627;28;20120;-79
2022/04/24 08:32:41;;;;;;;1.63;0.45;;;8.50;99.90;;;;;;4978019;28;20046;-82
2022/04/24 08:35:11;;;;;;;1.60;0.40;;;8.40;99.90;;;;;;4988746;28;20141;-78
2022/04/24 08:37:38;;;;;;;1.50;0.40;;;8.50;99.90;;;;;;4976758;28;20061;-85
2022/04/24 08:40:09;;;;;;;0.98;0.40;;;8.60;99.90;;;;;;4989715;28;20046;-85
2022/04/24 08:42:37;;;;;;;1.13;0.30;;;8.60;99.90;;;;;;4995960;28;20495;-84
2022/04/24 08:45:07;;;;;;;1.52;0.45;;;8.60;99.90;;;;;;4989057;28;20062;-82
2022/04/24 08:47:34;;;;;;;1.85;0.57;;;8.50;99.90;;;;;;4976302;28;20055;-80
2022/04/24 08:50:02;;;;;;;0.65;0.38;;;8.60;99.90;;;;;;4976557;28;20053;-80
2022/04/24 08:52:30;;;;;;;1.10;0.43;;;8.60;99.90;;;;;;4982261;28;20052;-82
2022/04/24 08:54:59;;;;;;;1.17;0.40;;;8.70;99.90;;;;;;4987504;28;20148;-79
2022/04/24 08:57:30;;;;;;;2.58;0.40;;;8.60;99.90;;;;;;5013664;28;20054;-81
2022/04/24 08:59:57;;;;;;;1.05;0.30;;;8.80;99.90;;;;;;5015039;28;20046;-77
2022/04/24 09:02:25;;;;;;;1.85;0.55;;;8.70;99.90;;;;;;5026120;28;20056;-79
2022/04/24 09:04:53;;;;;;;1.30;0.50;;;8.60;99.90;;;;;;5031769;28;20053;-80
2022/04/24 09:07:22;;;;;;;1.02;0.40;;;8.60;99.90;;;;;;5014363;28;20050;-78
2022/04/24 09:09:51;;;;;;;2.47;0.77;;;8.60;99.90;;;;;;5000257;28;20064;-79
2022/04/24 09:12:23;;;;;;;0.98;0.40;;;8.60;99.90;;;;;;5014998;28;20054;-79
2022/04/24 09:14:54;;;;;;;1.50;0.57;;;8.50;99.90;;;;;;5005174;28;20050;-80
2022/04/24 09:17:23;;;;;;;1.92;0.50;;;8.40;99.90;;;;;;4992429;28;20065;-80
2022/04/24 09:19:52;;;;;;;1.33;0.57;;;8.60;99.90;;;;;;4997777;28;20075;-79
2022/04/24 09:22:19;;;;;;;1.70;0.65;;;8.70;99.90;;;;;;5011228;28;20059;-77
2022/04/24 09:24:49;;;;;;;1.73;0.50;;;8.60;99.90;;;;;;5012793;28;20168;-79
2022/04/24 09:27:25;;;;;;;1.38;0.65;;;8.70;99.90;;;;;;5020972;28;20134;-80
2022/04/24 09:29:55;;;;;;;1.42;0.43;;;8.70;99.90;;;;;;5004682;28;20105;-79
2022/04/24 09:32:26;;;;;;;1.67;0.60;;;8.80;99.90;;;;;;5012757;28;20483;-79
2022/04/24 09:34:53;;;;;;;1.52;0.50;;;8.70;99.90;;;;;;5012616;28;20132;-79
2022/04/24 09:37:21;;;;;;;1.35;0.50;;;8.70;99.90;;;;;;5025178;28;20558;-80
2022/04/24 09:39:50;;;;;;;1.05;0.47;;;8.70;99.90;;;;;;5013501;28;20113;-81
2022/04/24 09:42:19;;;;;;;0.93;0.47;;;8.70;99.90;;;;;;5011440;28;20037;-80
2022/04/24 09:44:48;;;;;;;1.65;0.57;;;8.80;99.90;;;;;;5012789;28;20052;-79
2022/04/24 09:47:23;;;;;;;1.35;0.63;;;8.80;99.90;;;;;;4992705;28;20439;-79
2022/04/24 09:49:50;;;;;;;1.05;0.50;;;8.70;99.90;;;;;;5004509;28;20132;-80
2022/04/24 09:52:20;;;;;;;1.38;0.60;;;8.90;99.90;;;;;;5016815;28;20133;-78
2022/04/24 09:54:49;;;;;;;1.65;0.70;;;8.80;99.90;;;;;;5014505;28;20049;-80
2022/04/24 09:57:19;;;;;;;1.55;0.60;;;8.80;99.90;;;;;;5031257;28;20053;-80
2022/04/24 09:59:48;;;;;;;1.30;0.68;;;9.00;99.90;;;;;;5015101;28;20060;-79
2022/04/24 10:02:17;;;;;;;1.63;0.63;;;8.90;99.90;;;;;;5002631;28;20106;-78
2022/04/24 10:04:46;;;;;;;0.80;0.45;;;9.00;99.90;;;;;;4991177;28;20058;-79
2022/04/24 10:07:15;;;;;;;2.08;0.80;;;9.00;99.90;;;;;;5011994;28;20068;-79
2022/04/24 10:09:45;;;;;;;1.67;0.60;;;8.90;99.90;;;;;;5011039;28;20495;-80
2022/04/24 10:12:17;;;;;;;2.08;0.70;;;9.00;99.90;;;;;;5007386;28;20054;-78
2022/04/24 10:14:50;;;;;;;2.70;0.80;;;9.00;99.90;;;;;;5014116;28;20144;-77
2022/04/24 10:17:47;;;;;;;1.35;0.60;;;9.10;99.90;;;;;;5023757;28;20050;-77
2022/04/24 10:20:42;;;;;;;3.28;0.90;;;9.10;99.90;;;;;;5006269;28;20053;-81
2022/04/24 10:23:10;;;;;;;1.65;0.75;;;9.10;99.90;;;;;;5003332;28;20133;-79
2022/04/24 10:25:39;;;;;;;1.10;0.60;;;9.10;99.90;;;;;;5006746;28;20046;-80
2022/04/24 10:28:12;;;;;;;1.88;0.70;;;9.10;99.90;;;;;;5007892;28;20156;-80
2022/04/24 10:30:40;;;;;;;4.55;1.92;;;9.20;99.90;;;;;;4999542;28;20197;-80
2022/04/24 10:33:18;;;;;;;3.80;1.98;;;9.20;99.90;;;;;;5002321;28;20120;-79
2022/04/24 10:35:53;;;;;;;3.85;1.95;;;9.30;99.90;;;;;;5029615;28;20409;-80
2022/04/24 10:38:21;;;;;;;7.93;1.02;;;9.20;99.90;;;;;;5016252;28;20169;-80
2022/04/24 10:41:03;;;;;;;2.60;1.00;;;9.20;99.90;;;;;;5001721;28;20132;-80
2022/04/24 10:43:39;;;;;;;2.08;0.90;;;9.40;99.90;;;;;;4995936;28;20053;-79
2022/04/24 10:46:20;;;;;;;2.13;0.80;;;9.30;99.90;;;;;;5003163;28;20566;-78
2022/04/24 10:48:49;;;;;;;1.80;0.93;;;9.30;99.90;;;;;;4997851;28;20053;-78
2022/04/24 10:51:29;;;;;;;1.90;0.70;;;9.50;99.90;;;;;;5009457;28;20054;-78
2022/04/24 10:53:58;;;;;;;2.33;0.90;;;9.40;99.90;;;;;;5010420;28;20042;-80
2022/04/24 10:56:26;;;;;;;2.42;0.95;;;9.50;99.90;;;;;;5025277;28;20144;-79
2022/04/24 10:58:53;;;;;;;1.75;0.80;;;9.30;99.90;;;;;;5030165;28;20056;-81
2022/04/24 11:01:20;;;;;;;2.05;0.77;;;9.40;99.90;;;;;;5014435;28;20053;-79
2022/04/24 11:03:49;;;;;;;1.98;0.70;;;9.40;99.90;;;;;;5009958;28;20417;-77
2022/04/24 11:06:21;;;;;;;2.20;0.80;;;9.50;99.90;;;;;;5010063;28;20052;-78
2022/04/24 11:08:49;;;;;;;2.22;0.88;;;9.70;99.90;;;;;;5018303;28;20053;-79
2022/04/24 11:11:16;;;;;;;2.30;0.80;;;9.60;99.90;;;;;;5028011;28;20541;-79
2022/04/24 11:13:44;;;;;;;2.40;0.85;;;9.60;99.90;;;;;;5000610;28;20054;-79
2022/04/24 11:16:12;;;;;;;2.90;0.80;;;9.60;99.90;;;;;;4994150;28;20046;-78
2022/04/24 11:18:46;;;;;;;2.38;0.85;;;9.70;99.90;;;;;;5012792;28;20057;-80
2022/04/24 11:21:19;;;;;;;1.88;0.77;;;9.60;99.90;;;;;;5014127;28;20625;-80
2022/04/24 11:23:47;;;;;;;1.83;0.70;;;9.60;99.90;;;;;;5004974;28;20056;-79
2022/04/24 11:26:14;;;;;;;2.53;0.75;;;9.70;99.90;;;;;;5015293;28;20053;-80
2022/04/24 11:28:44;;;;;;;1.98;0.80;;;9.70;99.90;;;;;;5033458;28;20136;-79
2022/04/24 11:31:15;;;;;;;2.40;0.90;;;9.70;99.90;;;;;;5029968;28;20467;-79
2022/04/24 11:33:55;;;;;;;2.55;1.00;;;9.70;99.90;;;;;;5014146;28;20057;-78
2022/04/24 11:36:26;;;;;;;2.40;0.90;;;9.70;99.90;;;;;;5013762;28;20454;-79
2022/04/24 11:38:53;;;;;;;2.80;1.00;;;9.80;99.90;;;;;;5014471;28;20065;-81
2022/04/24 11:41:21;;;;;;;2.70;0.90;;;9.80;99.90;;;;;;5016703;28;20128;-77
2022/04/24 11:43:49;;;;;;;2.08;0.90;;;9.90;99.90;;;;;;5028678;28;20057;-79
2022/04/24 11:51:54;;;;;;;2.42;0.95;;;9.80;99.90;;;;;;5013360;28;20088;-79
2022/04/24 11:54:22;;;;;;;3.20;1.00;;;9.70;99.90;;;;;;5013438;28;20046;-80
2022/04/24 11:56:53;;;;;;;2.90;1.15;;;9.80;99.90;;;;;;5032280;28;20056;-80
2022/04/24 11:59:23;;;;;;;2.72;1.05;;;9.90;99.90;;;;;;5033685;28;20136;-77
2022/04/24 12:01:58;;;;;;;2.78;1.00;;;10.20;99.90;;;;;;5033362;28;20053;-79
2022/04/24 12:04:31;;;;;;;2.15;0.90;;;10.20;99.90;;;;;;5033845;28;20096;-79
2022/04/24 12:07:05;;;;;;;2.33;0.90;;;10.20;99.90;;;;;;5034139;28;20056;-79
2022/04/24 12:09:33;;;;;;;2.67;1.20;;;10.20;99.90;;;;;;5021592;28;20508;-80
2022/04/24 12:12:13;;;;;;;2.20;0.98;;;10.30;99.90;;;;;;5032719;28;20049;-77
2022/04/24 12:14:42;;;;;;;2.17;0.80;;;10.20;99.90;;;;;;5017461;28;20431;-78
2022/04/24 12:17:11;;;;;;;1.77;0.73;;;10.00;99.90;;;;;;5015460;28;20050;-80
2022/04/24 12:19:41;;;;;;;2.17;0.80;;;10.30;99.90;;;;;;5030200;28;20120;-79
2022/04/24 12:22:11;;;;;;;1.77;0.65;;;10.20;99.90;;;;;;5033639;28;20057;-80
2022/04/24 12:24:41;;;;;;;2.20;0.90;;;10.10;99.90;;;;;;5041109;28;20092;-82
2022/04/24 12:27:10;;;;;;;1.90;0.80;;;10.00;99.90;;;;;;5036171;28;20050;-80
2022/04/24 12:29:42;;;;;;;2.35;0.80;;;10.00;99.90;;;;;;5019073;28;20394;-82
2022/04/24 12:32:12;;;;;;;1.90;0.80;;;9.90;99.90;;;;;;5013257;28;20050;-81
2022/04/24 12:34:40;;;;;;;2.60;1.00;;;10.00;99.90;;;;;;5013176;28;20057;-77
2022/04/24 12:37:10;;;;;;;1.98;0.90;;;10.10;99.90;;;;;;5012541;28;20780;-80
2022/04/24 12:39:38;;;;;;;3.00;1.00;;;10.10;99.90;;;;;;5011070;28;20050;-80
2022/04/24 12:42:14;;;;;;;1.58;0.70;;;10.10;99.90;;;;;;5012800;28;20558;-79
2022/04/24 12:44:42;;;;;;;1.55;0.70;;;10.10;99.90;;;;;;5012899;28;20058;-78
2022/04/24 12:47:10;;;;;;;1.75;0.80;;;10.10;99.90;;;;;;5010346;28;20411;-82
2022/04/24 12:49:39;;;;;;;2.92;0.82;;;10.10;99.90;;;;;;5020398;28;20061;-81
2022/04/24 12:52:09;;;;;;;2.47;0.73;;;10.10;99.90;;;;;;4992930;28;20499;-78
2022/04/24 12:54:36;;;;;;;1.50;0.70;;;10.10;99.90;;;;;;4997322;28;20531;-80
2022/04/24 12:57:05;;;;;;;4.82;2.10;;;10.10;99.90;;;;;;5014298;28;20057;-81
2022/04/24 12:59:32;;;;;;;3.40;1.33;;;10.10;99.90;;;;;;5022411;28;20557;-80